Galesburg, IL (61401)

8:45 AM CDT on August 22, 2014 (GMT -0500)
N9VPV | Change Station
CLOSE
Current Station
Personal Weather Station
Location: Galesburg, IL
Elevation: 777 ft
Nearby Weather Stations
Active Advisory: Areal Flood Advisory Active Notice: Local Storm Report

Elev 777 ft 40.95 °N, 90.39 °W | Updated 4 seconds ago

Heavy Thunderstorms and Rain
Heavy Thunderstorm Rain
74.3 °F
Feels Like 71 °F
N
1.0
Wind Variable Wind from SW
Gusts 7.0 mph

Today
High -- | Low -- °F
--% Chance of Precip.
Yesterday
High -- | Low -- °F
Precip. -- in
6:18 AM 7:49 PM
Waning Crescent, 8% visible
Pressure 29.93 in
Visibility 1.8 miles
Clouds Mostly Cloudy 400 ft
Overcast 1600 ft
Heat Index 71 °F
Dew Point 73 °F
Humidity 96%
Rainfall 1.52 in
Snow Depth Not available.
UV 0.0 out of 12
Pollen 6.40 out of 12
Ozone Good
PM2.5 Good
Flu Activity Not available.
METAR KGBG 221335Z AUTO 19011KT 1 3/4SM +TSRA BKN004 OVC016 24/24 A2993 RMK AO2 VIS 3/4V5 LTG DSNT ALQS P0026 T02360235

More Conditions Fewer Conditions

Pressure 29.93 in
Visibility 1.8 miles
Clouds Mostly Cloudy 400 ft
Overcast 1600 ft
Heat Index 71 °F
Dew Point 73 °F
Humidity 96%
Rainfall 1.52 in
Snow Depth Not available.
UV 0.0 out of 12
Pollen 6.40 out of 12
Ozone Good
PM2.5 Good
Flu Activity Not available.
METAR KGBG 221335Z AUTO 19011KT 1 3/4SM +TSRA BKN004 OVC016 24/24 A2993 RMK AO2 VIS 3/4V5 LTG DSNT ALQS P0026 T02360235

More Conditions Fewer Conditions

10-Day Weather Forecast

Almanac

Astronomy

Aug. 22, 2014 Rise Set
Actual Time 6:18 AM CDT 7:49 PM CDT
Civil Twilight 5:49 AM CDT 8:18 PM CDT
Nautical Twilight 5:14 AM CDT 8:53 PM CDT
Astronomical Twilight 4:37 AM CDT 9:29 PM CDT
Moon 3:40 AM CDT 5:58 PM CDT
Length of Visible Light 14h 28m
Length of Day
13h 31m
Tomorrow will be 2m 31s shorter.
Waning Crescent, 8% of the Moon is Illuminated
Today
Waning Crescent
Aug 25
New
Sep 2
First Quarter
Sep 8
Full
Sep 15
Last Quarter

Today's Extremes

State Highs State Lows

Community

WunderPhotos

Upload Photos

1,746,168 photos uploaded!

Nearby

Air Quality

  Air Quality AQ Index Pollutant
Yesterday Moderate
PM2.5
Yesterday Good
OZONE
Current Good
PM2.5
Current Good
OZONE
Friday Moderate
PM2.5
Friday Moderate
OZONE
Saturday Moderate
PM2.5
Saturday Moderate
OZONE
Sunday Moderate
PM2.5
Sunday Moderate
OZONE

Snow Depth

Station Depth Elevation
No new snow has been reported.

Earthquake Activity

City Distance Mag. Time & Date
No recent earthquake activity has been reported nearby.
Minimum magnitude displayed is 2.5.

Coastal Water Temperatures

Place Temperature
No Stations Reporting

Nearby Weather Stations